Latest Weather Observations for Bridgetown

IDW60801

Issued at 11:05 pm WST Wednesday 22 October 2014 (issued every 30 minutes, with the page automatically refreshed every 10 minutes)

About weather observations | Map of weather stations | Latest weather observations for WA | Other Formats
Station Details ID: 009617 Name: BRIDGETOWN Lat: -33.95 Lon: 116.13 Height: 178.66 m
Data from the previous 72 hours. | See also: Recent months at Bridgetown
Date/Time
WST
Temp
°C
App
Temp
°C
Dew
Point
Rel
Hum
%
Delta-T
°C
Wind Press
QNH
hPa
Press
MSL
hPa
Rain
since 9 am
mm
Dir
 
Spd
km/h
Gust
km/h
Spd
kts
Gust
kts
22/11:00pm 15.7 17.5 15.5 99 0.1 NNW 0 0 0 0 1012.7 1012.6 -
22/10:30pm 15.7 17.5 15.5 99 0.1 NNW 0 0 0 0 1012.7 1012.6 -
22/10:00pm 16.0 17.2 15.8 99 0.1 NNW 4 7 2 4 1012.6 1012.5 -
22/09:30pm 16.5 18.6 16.3 99 0.1 CALM 0 6 0 3 1012.5 1012.4 -
22/09:00pm 16.8 18.3 16.6 99 0.1 NNW 4 6 2 3 1012.7 1012.6 4.0
22/08:30pm 17.4 19.1 17.2 99 0.1 NNW 4 7 2 4 1012.2 1012.1 -
22/08:00pm 17.7 19.2 17.5 99 0.1 NNW 6 11 3 6 1012.2 1012.1 -
22/07:30pm 17.6 19.0 17.3 98 0.2 NNW 6 9 3 5 1011.8 1011.7 -
22/07:00pm 17.9 18.2 16.9 94 0.6 N 11 17 6 9 1011.3 1011.2 -
22/06:30pm 18.5 20.8 18.5 100 0.0 WSW 4 6 2 3 1010.8 1010.7 -
22/06:00pm 18.7 21.8 18.7 100 0.0 CALM 0 0 0 0 1010.5 1010.4 -
22/05:30pm 18.8 21.2 18.8 100 0.0 WSW 4 7 2 4 1010.4 1010.3 -
22/05:00pm 18.6 21.3 18.6 100 0.0 WSW 2 4 1 2 1010.0 1009.9 -
22/04:30pm 18.3 20.9 18.3 100 0.0 WSW 2 7 1 4 1009.8 1009.6 -
22/04:00pm 17.4 17.4 17.2 99 0.1 NNE 13 24 7 13 1009.3 1009.1 -
22/03:48pm 20.5 17.2 17.9 85 1.6 NNE 32 63 17 34 1009.9 1009.8 -
22/03:30pm 25.9 26.0 15.6 53 6.3 E 9 19 5 10 1008.7 1008.6 -
22/03:00pm 25.7 25.0 15.4 53 6.3 NE 13 26 7 14 1010.5 1010.4 -
22/02:30pm 25.9 25.6 16.5 56 5.8 NE 13 20 7 11 1010.9 1010.8 -
22/02:00pm 25.4 24.4 14.5 51 6.5 ENE 13 26 7 14 1011.7 1011.6 -
22/01:30pm 25.2 23.5 14.6 51 6.4 ENE 17 28 9 15 1012.4 1012.3 -
22/01:00pm 24.3 23.2 14.4 54 5.9 ENE 13 24 7 13 1012.8 1012.7 -
22/12:30pm 24.2 23.4 15.1 56 5.5 E 13 26 7 14 1013.4 1013.3 -
22/09:00am 18.5 - - - - E 9 20 5 11 1017.4 1017.3 0.0
22/08:30am 16.8 - - - - E 13 22 7 12 1017.6 1017.5 0.0
22/08:00am 15.7 - - - - E 9 20 5 11 1017.8 1017.7 0.0
22/07:30am 14.6 - - - - ESE 6 15 3 8 1018.1 1018.0 0.0
22/07:00am 13.2 - - - - E 7 20 4 11 1018.4 1018.3 0.0
22/06:30am 12.4 - - - - E 7 13 4 7 1018.5 1018.4 0.0
22/06:00am 11.8 - - - - E 9 17 5 9 1018.5 1018.4 0.0
22/05:30am 11.3 - - - - ESE 6 11 3 6 1018.5 1018.4 0.0
22/05:00am 11.1 - - - - ESE 7 17 4 9 1018.6 1018.5 0.0
22/04:30am 10.9 - - - - ESE 6 13 3 7 1018.7 1018.6 0.0
22/04:00am 10.7 - - - - ESE 4 15 2 8 1018.9 1018.8 0.0
22/03:30am 10.6 - - - - S 4 7 2 4 1019.1 1019.0 0.0
22/03:00am 10.6 - - - - S 6 9 3 5 1019.3 1019.2 0.0
22/02:30am 10.6 - - - - SSE 6 9 3 5 1019.7 1019.7 0.0
22/02:00am 10.5 - - - - SSE 7 11 4 6 1020.0 1020.0 0.0
22/01:30am 10.7 - - - - S 4 7 2 4 1020.5 1020.5 0.0
22/01:00am 11.1 - - - - SSE 7 15 4 8 1020.9 1020.8 0.0
22/12:30am 11.5 - - - - S 6 9 3 5 1021.2 1021.1 0.0
22/12:00am 12.1 - - - - SSE 9 20 5 11 1021.0 1020.9 0.0
 
Date/Time
WST
Temp
°C
App
Temp
°C
Dew
Point
Rel
Hum
%
Delta-T
°C
Wind Press
QNH
hPa
Press
MSL
hPa
Rain
since 9 am
mm
Dir
 
Spd
km/h
Gust
km/h
Spd
kts
Gust
kts
21/11:30pm 12.3 - - - - SE 7 15 4 8 1020.8 1020.7 0.0
21/11:00pm 12.6 - - - - SE 6 17 3 9 1021.0 1020.9 0.0
21/10:30pm 12.9 - - - - SE 9 19 5 10 1021.5 1021.4 0.0
21/10:00pm 13.4 - - - - SE 9 19 5 10 1021.7 1021.6 0.0
21/09:30pm 14.0 - - - - SE 11 22 6 12 1021.8 1021.7 0.0
21/09:00pm 14.5 - - - - SSE 9 15 5 8 1022.1 1022.0 0.0
21/08:30pm 12.9 - - - - S 6 13 3 7 1021.9 1021.8 0.0
21/08:00pm 12.7 - - - - CALM 0 0 0 0 1021.5 1021.4 0.0
21/07:30pm 14.4 - - - - CALM 0 0 0 0 1021.5 1021.4 0.0
21/07:00pm 15.8 - - - - CALM 0 4 0 2 1021.3 1021.2 0.0
21/06:30pm 18.0 - - - - E 6 9 3 5 1021.2 1021.1 0.0
21/06:00pm 19.1 - - - - E 7 13 4 7 1020.9 1020.8 0.0
21/05:30pm 20.1 - - - - E 7 13 4 7 1020.7 1020.6 0.0
21/05:00pm 20.4 - - - - E 7 11 4 6 1020.5 1020.5 0.0
21/04:30pm 20.8 - - - - ESE 7 13 4 7 1020.5 1020.5 0.0
21/04:00pm 21.2 - - - - ENE 7 13 4 7 1020.7 1020.6 0.0
21/03:30pm 21.2 - - - - E 6 15 3 8 1020.8 1020.7 0.0
21/03:00pm 21.2 - - - - NE 4 15 2 8 1021.0 1020.9 0.0
21/02:30pm 21.0 - - - - ESE 9 15 5 8 1021.1 1021.0 0.0
21/02:00pm 21.0 - - - - SSW 9 19 5 10 1021.4 1021.3 0.0
21/01:30pm 20.1 - - - - NNW 6 11 3 6 1021.9 1021.8 0.0
21/01:00pm 20.1 - - - - E 4 9 2 5 1022.0 1021.9 0.0
21/12:30pm 19.6 - - - - ENE 4 7 2 4 1022.2 1022.1 0.0
21/12:00pm 18.8 - - - - N 6 9 3 5 1022.4 1022.3 0.0
21/11:30am 17.7 - - - - S 7 13 4 7 1022.7 1022.6 0.0
21/11:00am 18.2 - - - - SSE 7 15 4 8 1023.0 1022.9 0.0
21/10:30am 16.9 - - - - ESE 9 17 5 9 1023.2 1023.1 0.0
21/10:00am 16.1 - - - - E 7 11 4 6 1023.5 1023.4 0.0
21/09:30am 15.6 - - - - E 7 15 4 8 1023.3 1023.2 0.0
21/09:00am 13.6 - - - - ENE 2 6 1 3 1023.5 1023.4 -
21/08:30am 12.0 - - - - S 2 6 1 3 1023.4 1023.3 -
21/08:00am 10.5 - - - - SE 2 4 1 2 1023.2 1023.1 -
21/07:30am 8.7 - - - - CALM 0 0 0 0 1023.1 1023.0 -
21/07:00am 6.7 - - - - CALM 0 0 0 0 1022.9 1022.8 -
21/06:30am 5.4 - - - - CALM 0 0 0 0 1022.8 1022.7 -
21/06:00am 5.0 - - - - CALM 0 0 0 0 1022.5 1022.4 -
21/05:30am 4.8 - - - - CALM 0 0 0 0 1022.3 1022.2 -
21/05:00am 5.5 - - - - CALM 0 0 0 0 1021.9 1021.8 -
21/04:30am 5.9 - - - - CALM 0 0 0 0 1021.5 1021.4 -
21/04:00am 6.4 - - - - CALM 0 0 0 0 1021.5 1021.4 -
21/03:30am 6.8 - - - - CALM 0 0 0 0 1021.1 1021.0 -
21/03:00am 7.3 - - - - CALM 0 0 0 0 1020.9 1020.8 0.0
21/02:30am 7.6 - - - - CALM 0 0 0 0 1020.5 1020.5 -
21/02:00am 7.9 - - - - CALM 0 0 0 0 1020.5 1020.5 -
21/01:30am 7.8 - - - - CALM 0 0 0 0 1020.3 1020.3 -
21/01:00am 7.4 - - - - CALM 0 0 0 0 1020.1 1020.1 -
21/12:30am 7.0 - - - - CALM 0 0 0 0 1020.3 1020.3 -
21/12:00am 7.3 - - - - CALM 0 0 0 0 1020.5 1020.5 -
 
Date/Time
WST
Temp
°C
App
Temp
°C
Dew
Point
Rel
Hum
%
Delta-T
°C
Wind Press
QNH
hPa
Press
MSL
hPa
Rain
since 9 am
mm
Dir
 
Spd
km/h
Gust
km/h
Spd
kts
Gust
kts
20/11:30pm 7.6 - - - - CALM 0 0 0 0 1020.8 1020.7 -
20/11:00pm 8.0 - - - - CALM 0 0 0 0 1020.5 1020.5 -
20/10:30pm 8.5 - - - - CALM 0 0 0 0 1020.5 1020.5 -
20/10:00pm 9.3 - - - - CALM 0 0 0 0 1020.8 1020.7 -
20/09:30pm 9.9 - - - - CALM 0 0 0 0 1020.9 1020.8 -
20/09:00pm 10.5 - - - - CALM 0 0 0 0 1021.1 1021.0 0.4
20/08:30pm 11.7 - - - - CALM 0 0 0 0 1020.9 1020.8 -
20/08:00pm 12.4 - - - - CALM 0 4 0 2 1020.7 1020.6 -
20/07:30pm 12.5 - - - - WSW 4 7 2 4 1020.4 1020.4 -
20/07:00pm 12.5 - - - - SSW 6 9 3 5 1020.0 1020.0 -
20/06:30pm 13.2 - - - - SSW 9 17 5 9 1019.9 1019.9 -
20/06:00pm 13.7 - - - - SSW 7 13 4 7 1019.5 1019.5 -
20/05:30pm 14.1 - - - - SSW 7 13 4 7 1019.2 1019.1 -
20/05:00pm 15.3 - - - - SW 7 15 4 8 1019.0 1018.9 -
20/04:30pm 15.6 - - - - SW 9 22 5 12 1018.6 1018.5 -
20/04:00pm 16.3 - - - - SW 11 26 6 14 1018.2 1018.1 -
20/03:30pm 17.4 - - - - W 9 15 5 8 1017.5 1017.4 -
20/03:00pm 17.3 - - - - WSW 11 22 6 12 1017.3 1017.2 -
20/02:30pm 17.3 - - - - WSW 13 24 7 13 1017.2 1017.1 -
20/02:00pm 17.4 - - - - WSW 19 30 10 16 1016.9 1016.8 -
20/01:30pm 17.9 - - - - SW 13 26 7 14 1016.7 1016.6 -

Other Formats:

Comma delimited format used in spreadsheet applications
http://www.bom.gov.au/fwo/IDW60801/IDW60801.95632.axf

JavaScript Object Notation format (JSON) in row-major order
http://www.bom.gov.au/fwo/IDW60801/IDW60801.95632.json